SILO ALERT LOG


Silo ID Alert Type Alert Message Silo Type Points Depth (mm) Strength Temperature (°C) Humidity (%) Height (mm) Volume (㎥) Weight (t) Flag Time
DJSAD16 Humidity 습도센서 측정값이 80% 초과 91 6299 3358 4.5 80.7 1280 127.522 80.62 11 2024-01-14 11:39:32.000
DJSAD17 Humidity 습도센서 측정값이 80% 초과 441 3157 4770 3.9 81.2 4422 440.372 278.403 0 2024-01-14 11:39:32.000
DJSAD08 Humidity 습도센서 측정값이 80% 초과 614 2828 4947 7.2 84.2 4751 676.055 427.402 12 2024-01-14 11:39:32.000
DJDJD04 Humidity 습도센서 측정값이 80% 초과 279 4218 4420 3.6 82.6 3461 419.399 265.144 11 2024-01-14 11:39:32.000
DJDJD01 Humidity 습도센서 측정값이 80% 초과 314 6851 5944 2.6 81 828 100.344 63.437 11 2024-01-14 11:39:31.000
DJHNR03 Temperature 온도센서 상태 이상 호퍼 0 15500 0 -999 -999 -119 0 0 31 2024-01-14 11:39:24.000
DJSSD12 Temperature 온도센서 상태 이상 호퍼 0 11350 0 -999 -999 -120 0 0 31 2024-01-14 11:39:24.000
DJSAD03 Humidity 습도센서 측정값이 80% 초과 445 1669 6160 2.2 84.5 7110 294.334 186.078 0 2024-01-14 10:39:40.000
DJSAD01 Humidity 습도센서 측정값이 80% 초과 475 1522 7306 1.1 86 7257 300.435 189.935 0 2024-01-14 10:39:40.000
DJSAD02 Humidity 습도센서 측정값이 80% 초과 380 1128 4257 1.7 86.3 7651 316.76 200.255 11 2024-01-14 10:39:39.000
DJDJD03 Humidity 습도센서 측정값이 80% 초과 55 4938 5122 2 82.9 2741 332.101 209.954 0 2024-01-14 10:39:39.000
DJHNR08 Temperature 온도센서 측정값이 0도 미만 379 5437 2224 -1 66.6 2242 319.064 201.712 11 2024-01-14 10:39:36.000
DJSAD11 Humidity 습도센서 측정값이 80% 초과 331 1648 3284 0.8 80.4 5931 843.992 533.572 11 2024-01-14 10:39:35.000
DJSSD01 Humidity 습도센서 측정값이 80% 초과 792 2578 4720 4.6 84.4 5501 765.69 484.069 0 2024-01-14 10:39:33.000
DJSSD04 Temperature 온도센서 상태 이상 0 8200 0 -999 -999 -120 -16.702 0 31 2024-01-14 10:39:33.000
DJHNR01 Humidity 습도센서 측정값이 80% 초과 호퍼 471 4315 4971 4.5 99.9 11064 472.255 298.559 13 2024-01-14 10:39:32.000
DJSAD08 Humidity 습도센서 측정값이 80% 초과 641 2630 4897 6.8 84.5 4949 704.237 445.219 12 2024-01-14 10:39:32.000
DJSSD05 Temperature 온도센서 측정값이 0도 미만 847 2547 4867 -45.4 43.5 5532 769.984 486.784 0 2024-01-14 10:39:32.000
DJSAD17 Humidity 습도센서 측정값이 80% 초과 443 3145 4812 3.6 81.5 4434 441.543 279.144 0 2024-01-14 10:39:31.000
DJSAD18 Humidity 습도센서 측정값이 80% 초과 124 1332 5725 4.2 80.8 6247 622.16 393.33 11 2024-01-14 10:39:31.000

[첫 페이지] [9944] [9945] [9946] [9947] 9948 [9949] [9950] [9951] [9952] [마지막 페이지]